sensor_id;sensor_type;location;lat;lon;timestamp;pressure;altitude;pressure_sealevel;temperature;humidity
9523;BME280;63165;43.016;25.784;2023-03-20T00:01:17;100422.22;;;4.93;75.58
9523;BME280;63165;43.016;25.784;2023-03-20T00:03:46;100421.34;;;4.94;75.48
9523;BME280;63165;43.016;25.784;2023-03-20T00:06:15;100344.50;;;4.30;75.16
9523;BME280;63165;43.016;25.784;2023-03-20T00:08:43;100390.81;;;4.71;75.58
9523;BME280;63165;43.016;25.784;2023-03-20T00:11:24;100386.44;;;4.64;75.61
9523;BME280;63165;43.016;25.784;2023-03-20T00:13:57;100341.88;;;4.25;75.42
9523;BME280;63165;43.016;25.784;2023-03-20T00:16:28;100406.16;;;4.53;75.86
9523;BME280;63165;43.016;25.784;2023-03-20T00:18:57;100373.13;;;4.36;76.43
9523;BME280;63165;43.016;25.784;2023-03-20T00:21:24;100400.09;;;4.54;76.86
9523;BME280;63165;43.016;25.784;2023-03-20T00:23:52;100382.63;;;4.39;76.52
9523;BME280;63165;43.016;25.784;2023-03-20T00:26:20;100383.63;;;4.48;76.81
9523;BME280;63165;43.016;25.784;2023-03-20T00:28:49;100391.41;;;4.50;76.63
9523;BME280;63165;43.016;25.784;2023-03-20T00:31:22;100390.81;;;4.68;76.53
9523;BME280;63165;43.016;25.784;2023-03-20T00:33:50;100410.66;;;4.67;76.19
9523;BME280;63165;43.016;25.784;2023-03-20T00:36:17;100334.16;;;4.30;75.69
9523;BME280;63165;43.016;25.784;2023-03-20T00:38:45;100404.28;;;4.42;76.21
9523;BME280;63165;43.016;25.784;2023-03-20T00:41:21;100375.00;;;4.50;76.18
9523;BME280;63165;43.016;25.784;2023-03-20T00:43:51;100332.94;;;4.05;75.96
9523;BME280;63165;43.016;25.784;2023-03-20T00:46:21;100382.03;;;4.60;75.99
9523;BME280;63165;43.016;25.784;2023-03-20T00:48:48;100294.16;;;4.06;75.66
9523;BME280;63165;43.016;25.784;2023-03-20T00:51:16;100326.28;;;4.21;75.88
9523;BME280;63165;43.016;25.784;2023-03-20T00:53:43;100395.84;;;4.57;75.26
9523;BME280;63165;43.016;25.784;2023-03-20T00:56:27;100375.84;;;4.45;75.93
9523;BME280;63165;43.016;25.784;2023-03-20T00:58:56;100415.59;;;4.51;75.83
9523;BME280;63165;43.016;25.784;2023-03-20T01:01:25;100344.41;;;4.22;75.65
9523;BME280;63165;43.016;25.784;2023-03-20T01:03:53;100324.47;;;4.17;75.38
9523;BME280;63165;43.016;25.784;2023-03-20T01:06:20;100380.03;;;4.37;75.61
9523;BME280;63165;43.016;25.784;2023-03-20T01:08:47;100338.03;;;3.97;75.89
9523;BME280;63165;43.016;25.784;2023-03-20T01:11:19;100355.47;;;4.11;76.22
9523;BME280;63165;43.016;25.784;2023-03-20T01:13:47;100380.72;;;4.25;76.17
9523;BME280;63165;43.016;25.784;2023-03-20T01:16:19;100370.31;;;4.22;76.20
9523;BME280;63165;43.016;25.784;2023-03-20T01:18:49;100379.72;;;4.16;76.16
9523;BME280;63165;43.016;25.784;2023-03-20T01:21:18;100356.97;;;3.93;76.28
9523;BME280;63165;43.016;25.784;2023-03-20T01:23:46;100361.50;;;4.08;76.59
9523;BME280;63165;43.016;25.784;2023-03-20T01:26:21;100357.75;;;3.91;77.08
9523;BME280;63165;43.016;25.784;2023-03-20T01:28:50;100342.13;;;3.84;76.75
9523;BME280;63165;43.016;25.784;2023-03-20T01:31:18;100294.22;;;3.53;77.03
9523;BME280;63165;43.016;25.784;2023-03-20T01:33:45;100366.41;;;3.91;77.35
9523;BME280;63165;43.016;25.784;2023-03-20T01:36:18;100362.06;;;3.90;77.76
9523;BME280;63165;43.016;25.784;2023-03-20T01:38:52;100344.63;;;3.77;77.53
9523;BME280;63165;43.016;25.784;2023-03-20T01:41:22;100353.63;;;4.00;77.56
9523;BME280;63165;43.016;25.784;2023-03-20T01:43:50;100386.50;;;4.06;77.19
9523;BME280;63165;43.016;25.784;2023-03-20T01:46:19;100356.31;;;4.08;76.95
9523;BME280;63165;43.016;25.784;2023-03-20T01:49:07;100343.31;;;4.05;76.78
9523;BME280;63165;43.016;25.784;2023-03-20T01:51:36;100351.25;;;4.16;76.62
9523;BME280;63165;43.016;25.784;2023-03-20T01:54:06;100305.84;;;3.81;75.99
9523;BME280;63165;43.016;25.784;2023-03-20T01:56:37;100331.06;;;3.93;75.97
9523;BME280;63165;43.016;25.784;2023-03-20T01:59:09;100334.47;;;3.89;75.91
9523;BME280;63165;43.016;25.784;2023-03-20T02:01:39;100347.25;;;3.81;76.69
9523;BME280;63165;43.016;25.784;2023-03-20T02:04:08;100375.97;;;3.95;76.85
9523;BME280;63165;43.016;25.784;2023-03-20T02:06:37;100371.59;;;3.91;76.88
9523;BME280;63165;43.016;25.784;2023-03-20T02:09:06;100369.78;;;3.85;76.96
9523;BME280;63165;43.016;25.784;2023-03-20T02:11:36;100353.22;;;3.76;76.67
9523;BME280;63165;43.016;25.784;2023-03-20T02:14:04;100375.59;;;3.71;77.08
9523;BME280;63165;43.016;25.784;2023-03-20T02:16:32;100348.81;;;3.68;77.43
9523;BME280;63165;43.016;25.784;2023-03-20T02:19:00;100334.00;;;3.60;77.25
9523;BME280;63165;43.016;25.784;2023-03-20T02:21:51;100296.50;;;3.35;78.08
9523;BME280;63165;43.016;25.784;2023-03-20T02:24:44;100379.91;;;3.72;77.63
9523;BME280;63165;43.016;25.784;2023-03-20T02:27:23;100378.19;;;3.74;77.72
9523;BME280;63165;43.016;25.784;2023-03-20T02:30:25;100344.53;;;3.72;77.69
9523;BME280;63165;43.016;25.784;2023-03-20T02:36:33;100360.63;;;3.54;77.14
9523;BME280;63165;43.016;25.784;2023-03-20T02:39:32;100349.63;;;3.66;76.96
9523;BME280;63165;43.016;25.784;2023-03-20T02:42:09;100314.91;;;3.53;76.81
9523;BME280;63165;43.016;25.784;2023-03-20T02:44:45;100367.94;;;3.78;76.99
9523;BME280;63165;43.016;25.784;2023-03-20T02:47:16;100359.28;;;3.76;76.37
9523;BME280;63165;43.016;25.784;2023-03-20T02:49:53;100319.19;;;3.51;76.49
9523;BME280;63165;43.016;25.784;2023-03-20T02:52:28;100342.53;;;3.54;76.34
9523;BME280;63165;43.016;25.784;2023-03-20T02:55:09;100361.69;;;3.65;76.63
9523;BME280;63165;43.016;25.784;2023-03-20T02:57:50;100268.56;;;3.14;76.55
9523;BME280;63165;43.016;25.784;2023-03-20T03:00:25;100360.72;;;3.60;76.50
9523;BME280;63165;43.016;25.784;2023-03-20T03:02:59;100320.75;;;3.41;76.95
9523;BME280;63165;43.016;25.784;2023-03-20T03:05:35;100353.75;;;3.55;76.92
9523;BME280;63165;43.016;25.784;2023-03-20T03:08:06;100319.84;;;3.38;77.32
9523;BME280;63165;43.016;25.784;2023-03-20T03:10:39;100357.16;;;3.52;77.15
9523;BME280;63165;43.016;25.784;2023-03-20T03:13:12;100316.13;;;3.23;77.06
9523;BME280;63165;43.016;25.784;2023-03-20T03:15:45;100355.25;;;3.42;77.39
9523;BME280;63165;43.016;25.784;2023-03-20T03:18:18;100329.19;;;3.31;77.74
9523;BME280;63165;43.016;25.784;2023-03-20T03:20:47;100339.47;;;3.26;78.17
9523;BME280;63165;43.016;25.784;2023-03-20T03:23:22;100313.25;;;3.06;77.84
9523;BME280;63165;43.016;25.784;2023-03-20T03:25:54;100357.78;;;3.40;78.25
9523;BME280;63165;43.016;25.784;2023-03-20T03:28:30;100327.41;;;3.27;77.82
9523;BME280;63165;43.016;25.784;2023-03-20T03:31:03;100310.97;;;3.22;77.93
9523;BME280;63165;43.016;25.784;2023-03-20T03:33:34;100310.94;;;3.20;77.95
9523;BME280;63165;43.016;25.784;2023-03-20T03:36:10;100329.19;;;3.31;78.24
9523;BME280;63165;43.016;25.784;2023-03-20T03:38:43;100324.94;;;3.33;77.47
9523;BME280;63165;43.016;25.784;2023-03-20T03:41:19;100254.53;;;2.98;77.50
9523;BME280;63165;43.016;25.784;2023-03-20T03:43:52;100330.25;;;3.41;77.84
9523;BME280;63165;43.016;25.784;2023-03-20T03:46:27;100348.16;;;3.30;77.55
9523;BME280;63165;43.016;25.784;2023-03-20T03:49:01;100350.72;;;3.28;77.99
9523;BME280;63165;43.016;25.784;2023-03-20T03:51:33;100340.41;;;3.30;78.34
9523;BME280;63165;43.016;25.784;2023-03-20T03:54:06;100333.53;;;3.32;77.98
9523;BME280;63165;43.016;25.784;2023-03-20T03:56:38;100294.44;;;3.15;77.82
9523;BME280;63165;43.016;25.784;2023-03-20T03:59:11;100291.94;;;3.20;77.84
9523;BME280;63165;43.016;25.784;2023-03-20T04:01:41;100338.84;;;3.40;77.37
9523;BME280;63165;43.016;25.784;2023-03-20T04:04:12;100336.22;;;3.38;77.29
9523;BME280;63165;43.016;25.784;2023-03-20T04:06:41;100330.25;;;3.41;77.61
9523;BME280;63165;43.016;25.784;2023-03-20T04:09:08;100282.22;;;3.05;77.11
9523;BME280;63165;43.016;25.784;2023-03-20T04:11:38;100359.47;;;3.35;77.03
9523;BME280;63165;43.016;25.784;2023-03-20T04:14:06;100355.94;;;3.32;77.43
9523;BME280;63165;43.016;25.784;2023-03-20T04:16:35;100342.97;;;3.30;77.32
9523;BME280;63165;43.016;25.784;2023-03-20T04:19:02;100308.19;;;3.11;77.06
9523;BME280;63165;43.016;25.784;2023-03-20T04:21:30;100343.81;;;3.29;77.31
9523;BME280;63165;43.016;25.784;2023-03-20T04:23:57;100336.75;;;3.19;77.23
9523;BME280;63165;43.016;25.784;2023-03-20T04:26:27;100333.47;;;3.27;77.40
9523;BME280;63165;43.016;25.784;2023-03-20T04:28:56;100300.31;;;3.05;77.68
9523;BME280;63165;43.016;25.784;2023-03-20T04:31:24;100342.72;;;3.15;77.72
9523;BME280;63165;43.016;25.784;2023-03-20T04:33:55;100334.22;;;3.22;77.74
9523;BME280;63165;43.016;25.784;2023-03-20T04:36:22;100318.41;;;3.06;77.93
9523;BME280;63165;43.016;25.784;2023-03-20T04:38:50;100341.81;;;3.14;78.20
9523;BME280;63165;43.016;25.784;2023-03-20T04:41:17;100348.81;;;3.18;78.05
9523;BME280;63165;43.016;25.784;2023-03-20T04:43:45;100342.94;;;3.28;78.02
9523;BME280;63165;43.016;25.784;2023-03-20T04:46:15;100320.97;;;3.03;77.83
9523;BME280;63165;43.016;25.784;2023-03-20T04:48:43;100325.31;;;3.06;78.00
9523;BME280;63165;43.016;25.784;2023-03-20T04:51:11;100361.88;;;3.26;78.23
9523;BME280;63165;43.016;25.784;2023-03-20T04:53:38;100341.88;;;3.17;78.52
9523;BME280;63165;43.016;25.784;2023-03-20T04:56:06;100352.22;;;3.17;78.26
9523;BME280;63165;43.016;25.784;2023-03-20T04:58:34;100320.03;;;3.00;78.47
9523;BME280;63165;43.016;25.784;2023-03-20T05:01:02;100359.13;;;3.17;78.88
9523;BME280;63165;43.016;25.784;2023-03-20T05:03:31;100370.59;;;3.33;78.98
9523;BME280;63165;43.016;25.784;2023-03-20T05:05:58;100354.13;;;3.26;79.26
9523;BME280;63165;43.016;25.784;2023-03-20T05:08:25;100386.25;;;3.40;80.21
9523;BME280;63165;43.016;25.784;2023-03-20T05:10:53;100366.50;;;3.45;80.00
9523;BME280;63165;43.016;25.784;2023-03-20T05:13:20;100371.78;;;3.50;79.89
9523;BME280;63165;43.016;25.784;2023-03-20T05:15:47;100343.13;;;3.39;80.28
9523;BME280;63165;43.016;25.784;2023-03-20T05:18:15;100338.94;;;3.46;80.62
9523;BME280;63165;43.016;25.784;2023-03-20T05:20:43;100364.97;;;3.57;80.70
9523;BME280;63165;43.016;25.784;2023-03-20T05:23:11;100352.00;;;3.55;80.64
9523;BME280;63165;43.016;25.784;2023-03-20T05:25:38;100336.50;;;3.55;80.92
9523;BME280;63165;43.016;25.784;2023-03-20T05:28:06;100346.13;;;3.64;80.90
9523;BME280;63165;43.016;25.784;2023-03-20T05:30:33;100368.63;;;3.68;81.14
9523;BME280;63165;43.016;25.784;2023-03-20T05:33:04;100389.41;;;3.73;81.31
9523;BME280;63165;43.016;25.784;2023-03-20T05:35:32;100393.06;;;3.87;81.25
9523;BME280;63165;43.016;25.784;2023-03-20T05:38:01;100380.28;;;3.95;81.94
9523;BME280;63165;43.016;25.784;2023-03-20T05:40:28;100373.50;;;4.03;81.87
9523;BME280;63165;43.016;25.784;2023-03-20T05:42:55;100369.06;;;3.96;82.88
9523;BME280;63165;43.016;25.784;2023-03-20T05:45:22;100350.13;;;4.00;83.30
9523;BME280;63165;43.016;25.784;2023-03-20T05:47:50;100363.34;;;4.15;83.94
9523;BME280;63165;43.016;25.784;2023-03-20T05:50:17;100328.75;;;4.12;83.88
9523;BME280;63165;43.016;25.784;2023-03-20T05:52:49;100325.44;;;4.23;84.12
9523;BME280;63165;43.016;25.784;2023-03-20T05:55:18;100320.41;;;4.34;83.91
9523;BME280;63165;43.016;25.784;2023-03-20T05:57:46;100303.16;;;4.35;84.35
9523;BME280;63165;43.016;25.784;2023-03-20T06:00:18;100346.53;;;4.51;84.90
9523;BME280;63165;43.016;25.784;2023-03-20T06:02:49;100378.28;;;5.05;86.19
9523;BME280;63165;43.016;25.784;2023-03-20T06:05:19;100380.16;;;5.21;87.23
9523;BME280;63165;43.016;25.784;2023-03-20T06:07:52;100337.69;;;5.07;87.50
9523;BME280;63165;43.016;25.784;2023-03-20T06:10:33;100370.03;;;5.46;88.00
9523;BME280;63165;43.016;25.784;2023-03-20T06:13:02;100345.00;;;5.48;88.17
9523;BME280;63165;43.016;25.784;2023-03-20T06:15:29;100346.91;;;5.74;88.10
9523;BME280;63165;43.016;25.784;2023-03-20T06:17:57;100360.97;;;5.97;88.83
9523;BME280;63165;43.016;25.784;2023-03-20T06:20:24;100301.91;;;5.72;89.15
9523;BME280;63165;43.016;25.784;2023-03-20T06:22:52;100293.38;;;5.88;89.48
9523;BME280;63165;43.016;25.784;2023-03-20T06:25:19;100282.25;;;6.06;89.16
9523;BME280;63165;43.016;25.784;2023-03-20T06:27:48;100389.16;;;6.74;89.48
9523;BME280;63165;43.016;25.784;2023-03-20T06:30:16;100351.03;;;6.77;89.31
9523;BME280;63165;43.016;25.784;2023-03-20T06:32:43;100333.72;;;6.93;89.47
9523;BME280;63165;43.016;25.784;2023-03-20T06:35:11;100352.84;;;7.22;89.29
9523;BME280;63165;43.016;25.784;2023-03-20T06:37:39;100235.72;;;6.74;88.88
9523;BME280;63165;43.016;25.784;2023-03-20T06:40:07;100349.44;;;7.67;88.91
9523;BME280;63165;43.016;25.784;2023-03-20T06:42:34;100275.66;;;7.41;88.42
9523;BME280;63165;43.016;25.784;2023-03-20T06:45:04;100284.31;;;7.61;87.98
9523;BME280;63165;43.016;25.784;2023-03-20T06:47:32;100328.56;;;7.96;88.07
9523;BME280;63165;43.016;25.784;2023-03-20T06:50:00;100318.94;;;8.28;86.66
9523;BME280;63165;43.016;25.784;2023-03-20T06:52:27;100350.16;;;8.66;86.29
9523;BME280;63165;43.016;25.784;2023-03-20T06:54:55;100344.81;;;8.86;85.63
9523;BME280;63165;43.016;25.784;2023-03-20T06:57:22;100320.50;;;8.83;84.44
9523;BME280;63165;43.016;25.784;2023-03-20T06:59:50;100334.28;;;9.08;83.87
9523;BME280;63165;43.016;25.784;2023-03-20T07:02:18;100351.53;;;9.32;83.54
9523;BME280;63165;43.016;25.784;2023-03-20T07:04:46;100337.50;;;9.47;83.29
9523;BME280;63165;43.016;25.784;2023-03-20T07:07:13;100339.91;;;9.71;82.33
9523;BME280;63165;43.016;25.784;2023-03-20T07:09:41;100331.91;;;9.90;81.42
9523;BME280;63165;43.016;25.784;2023-03-20T07:12:11;100327.38;;;10.06;80.06
9523;BME280;63165;43.016;25.784;2023-03-20T07:14:40;100337.66;;;10.24;79.34
9523;BME280;63165;43.016;25.784;2023-03-20T07:17:07;100321.75;;;10.47;78.74
9523;BME280;63165;43.016;25.784;2023-03-20T07:19:36;100321.50;;;10.67;78.21
9523;BME280;63165;43.016;25.784;2023-03-20T07:22:05;100327.53;;;10.76;77.24
9523;BME280;63165;43.016;25.784;2023-03-20T07:24:33;100344.59;;;11.03;76.15
9523;BME280;63165;43.016;25.784;2023-03-20T07:27:01;100330.44;;;11.16;75.98
9523;BME280;63165;43.016;25.784;2023-03-20T07:29:28;100328.50;;;11.29;75.61
9523;BME280;63165;43.016;25.784;2023-03-20T07:31:55;100316.09;;;11.42;74.48
9523;BME280;63165;43.016;25.784;2023-03-20T07:34:25;100321.84;;;11.64;73.80
9523;BME280;63165;43.016;25.784;2023-03-20T07:36:54;100293.75;;;11.72;73.25
9523;BME280;63165;43.016;25.784;2023-03-20T07:39:21;100330.75;;;12.07;71.89
9523;BME280;63165;43.016;25.784;2023-03-20T07:41:49;100325.25;;;12.20;71.00
9523;BME280;63165;43.016;25.784;2023-03-20T07:44:16;100331.84;;;12.40;70.75
9523;BME280;63165;43.016;25.784;2023-03-20T07:46:44;100313.28;;;12.51;70.43
9523;BME280;63165;43.016;25.784;2023-03-20T07:49:11;100336.34;;;12.78;69.67
9523;BME280;63165;43.016;25.784;2023-03-20T07:51:39;100310.88;;;12.82;69.05
9523;BME280;63165;43.016;25.784;2023-03-20T07:54:07;100317.28;;;13.09;68.84
9523;BME280;63165;43.016;25.784;2023-03-20T07:56:34;100275.78;;;12.86;67.53
9523;BME280;63165;43.016;25.784;2023-03-20T07:59:02;100332.91;;;13.54;66.89
9523;BME280;63165;43.016;25.784;2023-03-20T08:01:29;100317.91;;;13.58;65.98
9523;BME280;63165;43.016;25.784;2023-03-20T08:03:56;100340.69;;;13.93;64.89
9523;BME280;63165;43.016;25.784;2023-03-20T08:06:24;100335.72;;;14.15;64.61
9523;BME280;63165;43.016;25.784;2023-03-20T08:08:51;100302.13;;;14.25;63.37
9523;BME280;63165;43.016;25.784;2023-03-20T08:11:20;100330.22;;;14.56;62.01
9523;BME280;63165;43.016;25.784;2023-03-20T08:13:47;100299.38;;;14.61;61.05
9523;BME280;63165;43.016;25.784;2023-03-20T08:16:14;100316.25;;;14.85;60.66
9523;BME280;63165;43.016;25.784;2023-03-20T08:18:41;100326.84;;;15.12;60.31
9523;BME280;63165;43.016;25.784;2023-03-20T08:21:08;100316.72;;;15.26;59.79
9523;BME280;63165;43.016;25.784;2023-03-20T08:23:36;100260.03;;;15.13;59.07
9523;BME280;63165;43.016;25.784;2023-03-20T08:26:03;100241.28;;;15.22;58.09
9523;BME280;63165;43.016;25.784;2023-03-20T08:28:32;100307.13;;;15.79;57.77
9523;BME280;63165;43.016;25.784;2023-03-20T08:30:59;100269.19;;;15.56;56.63
9523;BME280;63165;43.016;25.784;2023-03-20T08:33:26;100305.25;;;16.07;56.56
9523;BME280;63165;43.016;25.784;2023-03-20T08:35:55;100292.31;;;16.25;57.40
9523;BME280;63165;43.016;25.784;2023-03-20T08:38:22;100277.63;;;16.41;56.53
9523;BME280;63165;43.016;25.784;2023-03-20T08:40:49;100302.06;;;16.70;55.86
9523;BME280;63165;43.016;25.784;2023-03-20T08:43:17;100305.16;;;16.83;54.67
9523;BME280;63165;43.016;25.784;2023-03-20T08:45:46;100297.50;;;16.99;54.83
9523;BME280;63165;43.016;25.784;2023-03-20T08:48:13;100309.84;;;17.20;54.46
9523;BME280;63165;43.016;25.784;2023-03-20T08:50:41;100297.06;;;17.32;53.45
9523;BME280;63165;43.016;25.784;2023-03-20T08:53:09;100315.69;;;17.51;52.68
9523;BME280;63165;43.016;25.784;2023-03-20T08:55:36;100304.03;;;17.77;51.94
9523;BME280;63165;43.016;25.784;2023-03-20T08:58:03;100309.53;;;17.93;50.10
9523;BME280;63165;43.016;25.784;2023-03-20T09:00:31;100310.66;;;18.08;49.66
9523;BME280;63165;43.016;25.784;2023-03-20T09:03:00;100283.00;;;18.15;50.11
9523;BME280;63165;43.016;25.784;2023-03-20T09:05:27;100298.44;;;18.45;49.35
9523;BME280;63165;43.016;25.784;2023-03-20T09:07:54;100301.41;;;18.57;49.07
9523;BME280;63165;43.016;25.784;2023-03-20T09:10:21;100263.59;;;18.54;48.24
9523;BME280;63165;43.016;25.784;2023-03-20T09:12:48;100286.03;;;18.85;48.99
9523;BME280;63165;43.016;25.784;2023-03-20T09:15:16;100287.38;;;18.93;48.07
9523;BME280;63165;43.016;25.784;2023-03-20T09:17:43;100283.78;;;18.94;48.53
9523;BME280;63165;43.016;25.784;2023-03-20T09:20:12;100289.94;;;19.14;48.11
9523;BME280;63165;43.016;25.784;2023-03-20T09:22:39;100259.41;;;19.05;47.65
9523;BME280;63165;43.016;25.784;2023-03-20T09:25:08;100285.19;;;19.20;47.22
9523;BME280;63165;43.016;25.784;2023-03-20T09:27:36;100273.97;;;19.33;46.40
9523;BME280;63165;43.016;25.784;2023-03-20T09:30:04;100265.56;;;19.42;46.53
9523;BME280;63165;43.016;25.784;2023-03-20T09:32:31;100277.28;;;19.55;46.01
9523;BME280;63165;43.016;25.784;2023-03-20T09:34:59;100263.69;;;19.62;45.47
9523;BME280;63165;43.016;25.784;2023-03-20T09:37:28;100265.56;;;19.59;44.81
9523;BME280;63165;43.016;25.784;2023-03-20T09:39:55;100262.84;;;19.61;44.65
9523;BME280;63165;43.016;25.784;2023-03-20T09:42:33;100256.75;;;19.59;43.50
9523;BME280;63165;43.016;25.784;2023-03-20T09:45:10;100236.75;;;19.69;43.88
9523;BME280;63165;43.016;25.784;2023-03-20T09:47:49;100197.66;;;19.55;44.14
9523;BME280;63165;43.016;25.784;2023-03-20T09:50:25;100253.72;;;20.02;43.65
9523;BME280;63165;43.016;25.784;2023-03-20T09:53:03;100144.44;;;19.41;44.16
9523;BME280;63165;43.016;25.784;2023-03-20T09:55:34;100239.88;;;20.28;44.39
9523;BME280;63165;43.016;25.784;2023-03-20T09:58:08;100231.50;;;20.36;44.06
9523;BME280;63165;43.016;25.784;2023-03-20T10:00:36;100218.75;;;20.43;43.34
9523;BME280;63165;43.016;25.784;2023-03-20T10:03:05;100225.84;;;20.42;42.77
9523;BME280;63165;43.016;25.784;2023-03-20T10:05:38;100225.34;;;20.51;42.71
9523;BME280;63165;43.016;25.784;2023-03-20T10:08:13;100237.22;;;20.62;43.07
9523;BME280;63165;43.016;25.784;2023-03-20T10:10:46;100208.59;;;20.67;42.27
9523;BME280;63165;43.016;25.784;2023-03-20T10:13:36;100221.16;;;20.79;41.58
9523;BME280;63165;43.016;25.784;2023-03-20T10:16:13;100225.47;;;20.82;41.20
9523;BME280;63165;43.016;25.784;2023-03-20T10:18:48;100218.72;;;20.76;40.26
9523;BME280;63165;43.016;25.784;2023-03-20T10:21:22;100212.50;;;20.75;40.45
9523;BME280;63165;43.016;25.784;2023-03-20T10:24:01;100207.03;;;20.79;39.88
9523;BME280;63165;43.016;25.784;2023-03-20T10:26:30;100220.50;;;20.91;40.11
9523;BME280;63165;43.016;25.784;2023-03-20T10:29:01;100193.44;;;20.83;40.35
9523;BME280;63165;43.016;25.784;2023-03-20T10:31:39;100202.97;;;21.03;38.93
9523;BME280;63165;43.016;25.784;2023-03-20T10:34:19;100206.91;;;21.12;39.12
9523;BME280;63165;43.016;25.784;2023-03-20T10:36:59;100210.34;;;21.28;39.22
9523;BME280;63165;43.016;25.784;2023-03-20T10:39:46;100196.97;;;21.30;38.74
9523;BME280;63165;43.016;25.784;2023-03-20T10:42:20;100159.91;;;21.27;38.88
9523;BME280;63165;43.016;25.784;2023-03-20T10:44:54;100175.59;;;21.31;38.74
9523;BME280;63165;43.016;25.784;2023-03-20T10:47:26;100178.75;;;21.38;38.64
9523;BME280;63165;43.016;25.784;2023-03-20T10:49:57;100184.84;;;21.40;38.82
9523;BME280;63165;43.016;25.784;2023-03-20T10:52:30;100188.13;;;21.45;38.19
9523;BME280;63165;43.016;25.784;2023-03-20T10:55:00;100172.91;;;21.47;37.28
9523;BME280;63165;43.016;25.784;2023-03-20T10:57:33;100179.47;;;21.56;37.18
9523;BME280;63165;43.016;25.784;2023-03-20T11:00:04;100166.47;;;21.66;37.17
9523;BME280;63165;43.016;25.784;2023-03-20T11:02:35;100156.78;;;21.79;36.89
9523;BME280;63165;43.016;25.784;2023-03-20T11:05:10;100140.50;;;21.84;36.80
9523;BME280;63165;43.016;25.784;2023-03-20T11:07:47;100143.34;;;21.95;37.47
9523;BME280;63165;43.016;25.784;2023-03-20T11:10:17;100161.78;;;22.13;36.95
9523;BME280;63165;43.016;25.784;2023-03-20T11:12:48;100140.69;;;21.95;36.41
9523;BME280;63165;43.016;25.784;2023-03-20T11:15:23;100141.09;;;22.03;36.19
9523;BME280;63165;43.016;25.784;2023-03-20T11:17:52;100145.34;;;22.06;36.42
9523;BME280;63165;43.016;25.784;2023-03-20T11:20:19;100136.03;;;22.13;36.17
9523;BME280;63165;43.016;25.784;2023-03-20T11:22:47;100128.97;;;22.26;35.83
9523;BME280;63165;43.016;25.784;2023-03-20T11:25:28;100122.69;;;22.27;35.02
9523;BME280;63165;43.016;25.784;2023-03-20T11:27:57;100036.72;;;21.82;35.09
9523;BME280;63165;43.016;25.784;2023-03-20T11:30:44;100104.56;;;22.47;35.55
9523;BME280;63165;43.016;25.784;2023-03-20T11:33:11;100113.00;;;22.54;35.59
9523;BME280;63165;43.016;25.784;2023-03-20T11:35:44;100138.78;;;22.67;35.41
9523;BME280;63165;43.016;25.784;2023-03-20T11:38:15;100106.91;;;22.79;35.45
9523;BME280;63165;43.016;25.784;2023-03-20T11:40:45;100063.31;;;22.53;34.97
9523;BME280;63165;43.016;25.784;2023-03-20T11:43:16;100083.78;;;22.92;34.56
9523;BME280;63165;43.016;25.784;2023-03-20T11:45:47;100102.59;;;23.03;33.72
9523;BME280;63165;43.016;25.784;2023-03-20T11:48:17;100103.94;;;22.96;33.75
9523;BME280;63165;43.016;25.784;2023-03-20T11:50:47;100089.84;;;22.94;34.26
9523;BME280;63165;43.016;25.784;2023-03-20T11:53:25;100093.66;;;23.04;33.88
9523;BME280;63165;43.016;25.784;2023-03-20T11:56:08;100069.97;;;22.85;33.84
9523;BME280;63165;43.016;25.784;2023-03-20T11:58:38;100072.78;;;22.84;33.78
9523;BME280;63165;43.016;25.784;2023-03-20T12:01:13;100018.72;;;22.55;34.05
9523;BME280;63165;43.016;25.784;2023-03-20T12:03:45;100061.56;;;22.79;34.11
9523;BME280;63165;43.016;25.784;2023-03-20T12:06:18;100089.44;;;22.87;33.76
9523;BME280;63165;43.016;25.784;2023-03-20T12:08:50;100082.06;;;22.91;33.54
9523;BME280;63165;43.016;25.784;2023-03-20T12:11:30;100069.88;;;22.87;33.15
9523;BME280;63165;43.016;25.784;2023-03-20T12:14:04;100079.50;;;22.90;33.62
9523;BME280;63165;43.016;25.784;2023-03-20T12:16:33;100087.72;;;22.86;33.79
9523;BME280;63165;43.016;25.784;2023-03-20T12:19:04;100080.13;;;22.80;33.65
9523;BME280;63165;43.016;25.784;2023-03-20T12:21:38;100074.56;;;22.71;32.99
9523;BME280;63165;43.016;25.784;2023-03-20T12:24:12;100063.91;;;22.71;33.73
9523;BME280;63165;43.016;25.784;2023-03-20T12:26:46;100050.53;;;22.58;33.10
9523;BME280;63165;43.016;25.784;2023-03-20T12:29:21;100078.38;;;22.66;33.13
9523;BME280;63165;43.016;25.784;2023-03-20T12:31:57;100062.22;;;22.55;32.62
9523;BME280;63165;43.016;25.784;2023-03-20T12:34:28;100052.69;;;22.38;32.20
9523;BME280;63165;43.016;25.784;2023-03-20T12:36:59;100070.09;;;22.44;32.86
9523;BME280;63165;43.016;25.784;2023-03-20T12:39:31;100061.38;;;22.27;32.57
9523;BME280;63165;43.016;25.784;2023-03-20T12:42:08;100073.91;;;22.40;32.65
9523;BME280;63165;43.016;25.784;2023-03-20T12:44:44;100024.75;;;22.17;32.47
9523;BME280;63165;43.016;25.784;2023-03-20T12:47:38;100056.00;;;22.42;32.78
9523;BME280;63165;43.016;25.784;2023-03-20T12:50:17;100059.50;;;22.42;32.34
9523;BME280;63165;43.016;25.784;2023-03-20T12:52:56;100059.84;;;22.38;33.08
9523;BME280;63165;43.016;25.784;2023-03-20T12:55:38;100057.81;;;22.41;32.43
9523;BME280;63165;43.016;25.784;2023-03-20T12:58:20;100061.25;;;22.43;32.32
9523;BME280;63165;43.016;25.784;2023-03-20T13:00:55;100054.31;;;22.41;32.35
9523;BME280;63165;43.016;25.784;2023-03-20T13:03:45;100030.44;;;22.25;31.94
9523;BME280;63165;43.016;25.784;2023-03-20T13:06:19;100056.31;;;22.37;32.19
9523;BME280;63165;43.016;25.784;2023-03-20T13:09:04;100034.16;;;22.22;31.67
9523;BME280;63165;43.016;25.784;2023-03-20T13:11:42;100006.06;;;22.04;31.64
9523;BME280;63165;43.016;25.784;2023-03-20T13:14:14;100046.41;;;22.25;31.52
9523;BME280;63165;43.016;25.784;2023-03-20T13:16:49;100021.34;;;22.15;32.15
9523;BME280;63165;43.016;25.784;2023-03-20T13:19:24;100001.25;;;21.82;32.06